createdAt,value
2022-08-17T00:00:43.332Z,14.30
2022-08-17T00:03:06.082Z,14.40
2022-08-17T00:05:39.683Z,15.80
2022-08-17T00:08:08.844Z,15.30
2022-08-17T00:13:40.352Z,16.00
2022-08-17T00:16:50.436Z,15.60
2022-08-17T00:19:24.013Z,16.30
2022-08-17T00:22:32.379Z,15.50
2022-08-17T00:24:44.726Z,17.30
2022-08-17T00:27:12.902Z,17.30
2022-08-17T00:29:41.382Z,15.90
2022-08-17T00:33:15.854Z,15.20
2022-08-17T00:34:57.697Z,16.20
2022-08-17T00:37:25.874Z,17.30
2022-08-17T00:39:54.213Z,16.80
2022-08-17T00:42:23.237Z,15.80
2022-08-17T00:44:52.953Z,15.90
2022-08-17T00:47:21.129Z,16.30
2022-08-17T00:49:49.247Z,17.20
2022-08-17T00:52:21.981Z,15.70
2022-08-17T00:54:53.460Z,16.90
2022-08-17T00:57:40.550Z,15.50
2022-08-17T01:00:16.786Z,15.20
2022-08-17T01:02:47.034Z,16.60
2022-08-17T01:05:19.826Z,15.70
2022-08-17T01:07:53.421Z,16.40
2022-08-17T01:10:58.300Z,14.50
2022-08-17T01:13:16.553Z,13.80
2022-08-17T01:16:02.382Z,13.60
2022-08-17T01:18:32.093Z,13.50
2022-08-17T01:21:08.084Z,12.80
2022-08-17T01:23:36.676Z,13.00
2022-08-17T01:26:06.751Z,12.10
2022-08-17T01:28:53.700Z,13.10
2022-08-17T01:31:29.005Z,14.20
2022-08-17T01:34:00.653Z,13.50
2022-08-17T01:36:30.889Z,14.00
2022-08-17T01:39:00.390Z,14.10
2022-08-17T01:41:28.769Z,14.90
2022-08-17T01:44:04.997Z,13.60
2022-08-17T01:46:37.455Z,14.10
2022-08-17T01:49:08.655Z,13.80
2022-08-17T01:51:37.285Z,13.70
2022-08-17T01:54:10.735Z,12.90
2022-08-17T01:56:43.105Z,14.30
2022-08-17T01:59:17.274Z,14.10
2022-08-17T02:01:46.656Z,13.10
2022-08-17T02:04:15.965Z,13.20
2022-08-17T02:06:52.590Z,13.10
2022-08-17T02:09:25.342Z,14.10
2022-08-17T02:11:56.381Z,13.80
2022-08-17T02:14:26.024Z,13.10
2022-08-17T02:16:54.709Z,13.30
2022-08-17T02:19:23.298Z,13.10
2022-08-17T02:21:53.823Z,15.30
2022-08-17T02:24:58.194Z,14.70
2022-08-17T02:27:15.465Z,14.30
2022-08-17T02:29:43.536Z,15.20
2022-08-17T02:32:25.513Z,15.70
2022-08-17T02:35:01.901Z,16.20
2022-08-17T02:37:31.301Z,15.10
2022-08-17T02:39:59.929Z,16.60
2022-08-17T02:42:34.203Z,15.50
2022-08-17T02:45:11.333Z,15.80
2022-08-17T02:47:40.411Z,15.90
2022-08-17T02:50:11.832Z,16.10
2022-08-17T02:52:44.015Z,14.90
2022-08-17T02:55:17.191Z,13.70
2022-08-17T02:57:45.776Z,14.10
2022-08-17T03:00:21.456Z,16.10
2022-08-17T03:02:50.101Z,14.80
2022-08-17T03:05:22.689Z,13.20
2022-08-17T03:07:51.547Z,13.10
2022-08-17T03:10:20.469Z,13.90
2022-08-17T03:12:48.953Z,13.00
2022-08-17T03:15:23.474Z,14.30
2022-08-17T03:17:52.595Z,15.00
2022-08-17T03:20:21.561Z,15.50
2022-08-17T03:22:53.258Z,15.50
2022-08-17T03:25:28.559Z,15.00
2022-08-17T03:27:57.348Z,14.50
2022-08-17T03:30:27.162Z,15.50
2022-08-17T03:32:57.997Z,13.80
2022-08-17T03:35:29.511Z,15.40
2022-08-17T03:38:00.442Z,15.10
2022-08-17T03:40:34.650Z,15.50
2022-08-17T03:43:22.164Z,18.30
2022-08-17T03:46:27.090Z,16.20
2022-08-17T03:49:15.821Z,16.80
2022-08-17T03:52:02.533Z,17.30
2022-08-17T03:54:49.501Z,16.50
2022-08-17T03:57:17.720Z,18.30
2022-08-17T03:59:45.926Z,17.20
2022-08-17T04:02:21.850Z,16.70
2022-08-17T04:04:51.167Z,16.00
2022-08-17T04:07:21.066Z,16.80
2022-08-17T04:09:49.808Z,15.90
2022-08-17T04:12:20.075Z,18.00
2022-08-17T04:14:52.977Z,16.80
2022-08-17T04:17:26.770Z,16.80
2022-08-17T04:19:56.255Z,17.20
2022-08-17T04:22:32.089Z,16.90
2022-08-17T04:25:16.297Z,18.10
2022-08-17T04:27:44.450Z,16.70
2022-08-17T04:30:13.749Z,17.90
2022-08-17T04:33:15.809Z,17.20
2022-08-17T04:35:47.418Z,18.00
2022-08-17T04:38:18.615Z,16.70
2022-08-17T04:41:05.942Z,17.90
2022-08-17T04:43:35.412Z,17.30
2022-08-17T04:46:13.549Z,17.90
2022-08-17T04:48:48.050Z,18.00
2022-08-17T04:51:21.778Z,17.30
2022-08-17T04:53:54.523Z,18.90
2022-08-17T04:56:26.093Z,17.50
2022-08-17T04:59:00.634Z,18.70
2022-08-17T05:01:31.418Z,17.60
2022-08-17T05:04:20.827Z,17.90
2022-08-17T05:06:52.190Z,18.40
2022-08-17T05:09:20.365Z,17.60
2022-08-17T05:11:48.641Z,17.30
2022-08-17T05:14:16.814Z,17.20
2022-08-17T05:16:46.115Z,18.30
2022-08-17T05:19:14.288Z,17.30
2022-08-17T05:21:42.666Z,17.00
2022-08-17T05:24:16.723Z,17.20
2022-08-17T05:27:04.236Z,17.60
2022-08-17T05:29:35.911Z,17.50
2022-08-17T05:32:37.897Z,17.60
2022-08-17T05:35:02.622Z,16.70
2022-08-17T05:37:30.799Z,18.00
2022-08-17T05:39:58.988Z,16.40
2022-08-17T05:42:27.247Z,17.70
2022-08-17T05:44:59.109Z,17.30
2022-08-17T05:47:28.095Z,18.10
2022-08-17T05:49:56.735Z,17.20
2022-08-17T05:52:59.060Z,18.90
2022-08-17T05:58:46.608Z,16.30
2022-08-17T06:01:51.850Z,15.00
2022-08-17T06:04:45.829Z,15.80
2022-08-17T06:07:29.057Z,16.70
2022-08-17T06:10:02.966Z,16.20
2022-08-17T06:12:52.643Z,17.10
2022-08-17T06:15:52.663Z,17.00
2022-08-17T06:18:24.729Z,16.60
2022-08-17T06:20:58.637Z,16.70
2022-08-17T06:23:30.703Z,17.70
2022-08-17T06:26:04.612Z,15.70
2022-08-17T06:28:50.806Z,16.50
2022-08-17T06:31:23.794Z,16.50
2022-08-17T06:33:51.968Z,16.70
2022-08-17T06:36:26.697Z,16.10
2022-08-17T06:39:13.712Z,16.20
2022-08-17T06:42:54.958Z,16.50
2022-08-17T06:45:14.491Z,17.00
2022-08-17T06:48:15.516Z,16.80
2022-08-17T06:50:53.927Z,15.50
2022-08-17T06:53:45.858Z,16.20
2022-08-17T06:56:57.501Z,17.70
2022-08-17T06:59:54.799Z,15.80
2022-08-17T07:02:51.555Z,17.30
2022-08-17T07:05:31.195Z,15.90
2022-08-17T07:08:15.138Z,16.90
2022-08-17T07:10:51.406Z,16.50
2022-08-17T07:13:22.342Z,16.20
2022-08-17T07:15:57.106Z,15.20
2022-08-17T07:18:27.290Z,15.60
2022-08-17T07:21:02.529Z,15.10
2022-08-17T07:23:42.070Z,15.50
2022-08-17T07:26:10.550Z,15.60
2022-08-17T07:28:39.373Z,15.60
2022-08-17T07:31:08.641Z,15.30
2022-08-17T07:33:37.120Z,14.70
2022-08-17T07:36:05.958Z,15.80
2022-08-17T07:38:35.757Z,15.30
2022-08-17T07:41:11.268Z,16.00
2022-08-17T07:43:42.226Z,15.70
2022-08-17T07:47:06.087Z,16.80
2022-08-17T07:49:48.290Z,15.00
2022-08-17T07:52:51.440Z,15.80
2022-08-17T07:55:33.175Z,15.40
2022-08-17T07:58:02.069Z,15.30
2022-08-17T08:00:32.277Z,16.50
2022-08-17T08:03:26.119Z,16.90
2022-08-17T08:05:57.943Z,15.60
2022-08-17T08:11:08.405Z,15.90
2022-08-17T08:13:44.069Z,14.60
2022-08-17T08:16:14.481Z,16.30
2022-08-17T08:18:55.982Z,16.00
2022-08-17T08:21:31.101Z,15.20
2022-08-17T08:24:23.958Z,16.20
2022-08-17T08:27:18.956Z,15.80
2022-08-17T08:30:05.154Z,14.50
2022-08-17T08:33:17.462Z,15.80
2022-08-17T08:37:13.054Z,15.50
2022-08-17T08:39:24.876Z,15.70
2022-08-17T08:42:08.001Z,16.30
2022-08-17T08:45:00.264Z,14.80
2022-08-17T08:48:22.736Z,14.20
2022-08-17T08:51:13.645Z,13.80
2022-08-17T08:53:52.252Z,14.40
2022-08-17T08:57:25.472Z,14.70
2022-08-17T09:02:40.907Z,13.70
2022-08-17T09:05:17.886Z,14.20
2022-08-17T09:07:56.347Z,13.80
2022-08-17T09:10:31.539Z,14.20
2022-08-17T09:13:12.112Z,13.30
2022-08-17T09:15:47.595Z,14.50
2022-08-17T09:19:03.478Z,14.10
2022-08-17T09:21:48.653Z,13.50
2022-08-17T09:24:27.030Z,13.90
2022-08-17T09:27:01.348Z,13.30
2022-08-17T09:29:35.381Z,13.10
2022-08-17T09:32:18.933Z,13.70
2022-08-17T09:34:52.901Z,13.60
2022-08-17T09:37:33.158Z,12.40
2022-08-17T09:40:24.987Z,13.30
2022-08-17T09:43:03.606Z,12.90
2022-08-17T09:45:41.125Z,12.30
2022-08-17T09:48:22.152Z,12.20
2022-08-17T09:51:14.211Z,13.50
2022-08-17T09:53:44.767Z,12.50
2022-08-17T09:56:48.216Z,12.80
2022-08-17T09:59:39.760Z,12.40
2022-08-17T10:02:38.244Z,13.20
2022-08-17T10:05:22.702Z,11.60
2022-08-17T10:08:02.243Z,11.50
2022-08-17T10:10:56.691Z,12.40
2022-08-17T10:13:28.184Z,11.60
2022-08-17T10:16:18.987Z,11.90
2022-08-17T10:18:47.162Z,12.50
2022-08-17T10:21:36.326Z,11.20
2022-08-17T10:24:33.994Z,11.10
2022-08-17T10:27:07.802Z,11.30
2022-08-17T10:29:48.409Z,11.00
2022-08-17T10:32:49.509Z,10.90
2022-08-17T10:35:27.103Z,11.10
2022-08-17T10:38:16.782Z,10.70
2022-08-17T10:41:21.412Z,11.00
2022-08-17T10:44:37.959Z,11.40
2022-08-17T10:47:14.795Z,10.80
2022-08-17T10:49:49.830Z,11.30
2022-08-17T10:52:24.956Z,11.20
2022-08-17T10:54:58.632Z,10.90
2022-08-17T10:57:27.053Z,9.60
2022-08-17T11:00:00.344Z,9.60
2022-08-17T11:02:39.680Z,10.20
2022-08-17T11:05:29.258Z,10.60
2022-08-17T11:08:17.399Z,10.40
2022-08-17T11:11:20.802Z,9.80
2022-08-17T11:14:28.803Z,9.10
2022-08-17T11:17:49.920Z,9.40
2022-08-17T11:20:30.587Z,9.10
2022-08-17T11:23:17.501Z,14.00
2022-08-17T11:25:55.732Z,15.00
2022-08-17T11:28:23.726Z,15.00
2022-08-17T11:30:59.234Z,17.70
2022-08-17T11:33:36.873Z,16.80
2022-08-17T11:36:37.864Z,16.40
2022-08-17T11:39:37.104Z,16.10
2022-08-17T11:42:10.375Z,15.50
2022-08-17T11:44:47.442Z,16.30
2022-08-17T11:47:52.953Z,16.40
2022-08-17T11:50:57.523Z,17.80
2022-08-17T11:54:03.621Z,17.30
2022-08-17T11:56:49.982Z,15.70
2022-08-17T11:59:33.414Z,17.20
2022-08-17T12:02:22.580Z,16.60
2022-08-17T12:05:03.260Z,17.00
2022-08-17T12:07:33.473Z,17.10
2022-08-17T12:10:02.041Z,13.70
2022-08-17T12:12:35.884Z,13.30
2022-08-17T12:15:12.104Z,21.00
2022-08-17T12:17:52.452Z,13.50
2022-08-17T12:20:28.854Z,12.20
2022-08-17T12:23:22.826Z,9.90
2022-08-17T12:26:03.750Z,10.10
2022-08-17T12:28:38.876Z,9.60
2022-08-17T12:31:14.690Z,11.10
2022-08-17T12:33:44.807Z,10.90
2022-08-17T12:36:16.464Z,9.80
2022-08-17T12:39:13.066Z,9.40
2022-08-17T12:41:47.256Z,9.90
2022-08-17T12:44:25.537Z,10.20
2022-08-17T12:47:23.300Z,9.40
2022-08-17T12:49:55.064Z,10.10
2022-08-17T12:52:28.233Z,11.00
2022-08-17T12:55:00.825Z,10.70
2022-08-17T12:57:46.348Z,11.20
2022-08-17T13:00:17.893Z,12.50
2022-08-17T13:03:12.778Z,12.10
2022-08-17T13:05:53.966Z,12.10
2022-08-17T13:08:31.430Z,11.20
2022-08-17T13:11:22.565Z,11.50
2022-08-17T13:13:57.167Z,11.30
2022-08-17T13:16:30.141Z,11.90
2022-08-17T13:19:15.716Z,11.10
2022-08-17T13:21:48.312Z,10.20
2022-08-17T13:24:29.691Z,9.60
2022-08-17T13:27:08.704Z,9.20
2022-08-17T13:29:37.307Z,9.00
2022-08-17T13:32:13.313Z,9.50
2022-08-17T13:35:12.537Z,8.90
2022-08-17T13:37:48.319Z,8.40
2022-08-17T13:40:19.411Z,6.90
2022-08-17T13:42:53.566Z,6.70
2022-08-17T13:45:34.965Z,6.60
2022-08-17T13:48:24.229Z,6.10
2022-08-17T13:50:52.507Z,6.70
2022-08-17T13:53:35.662Z,6.30
2022-08-17T13:56:37.912Z,6.10
2022-08-17T13:59:15.704Z,6.60
2022-08-17T14:01:53.493Z,7.50
2022-08-17T14:04:28.236Z,7.70
2022-08-17T14:06:58.965Z,8.60
2022-08-17T14:09:40.142Z,7.50
2022-08-17T14:12:15.590Z,8.40
2022-08-17T14:14:45.013Z,8.20
2022-08-17T14:17:13.663Z,8.40
2022-08-17T14:19:41.884Z,8.80
2022-08-17T14:22:19.242Z,9.30
2022-08-17T14:24:47.310Z,8.80
2022-08-17T14:27:17.843Z,9.60
2022-08-17T14:29:46.221Z,9.50
2022-08-17T14:32:25.042Z,9.40
2022-08-17T14:34:56.904Z,8.50
2022-08-17T14:37:28.154Z,9.00
2022-08-17T14:39:58.743Z,9.40
2022-08-17T14:42:30.284Z,9.10
2022-08-17T14:45:00.148Z,10.30
2022-08-17T14:47:28.321Z,9.30
2022-08-17T14:49:56.292Z,9.70
2022-08-17T14:52:24.261Z,9.00
2022-08-17T14:54:53.268Z,10.30
2022-08-17T14:57:33.487Z,9.80
2022-08-17T15:00:04.757Z,9.90
2022-08-17T15:02:48.388Z,9.50
2022-08-17T15:05:17.439Z,8.90
2022-08-17T15:07:45.841Z,8.80
2022-08-17T15:10:15.281Z,9.70
2022-08-17T15:12:43.893Z,9.00
2022-08-17T15:15:14.486Z,9.60
2022-08-17T15:17:46.218Z,9.90
2022-08-17T15:20:20.907Z,9.60
2022-08-17T15:22:50.109Z,9.60
2022-08-17T15:25:19.879Z,9.00
2022-08-17T15:27:48.582Z,9.30
2022-08-17T15:30:17.182Z,10.30
2022-08-17T15:32:45.804Z,10.60
2022-08-17T15:35:30.596Z,10.10
2022-08-17T15:38:06.256Z,9.80
2022-08-17T15:40:40.983Z,9.30
2022-08-17T15:43:12.732Z,10.00
2022-08-17T15:45:41.723Z,9.40
2022-08-17T15:48:10.891Z,10.50
2022-08-17T15:50:38.993Z,10.10
2022-08-17T15:53:07.168Z,9.20
2022-08-17T15:55:36.877Z,9.50
2022-08-17T15:58:05.051Z,9.10
2022-08-17T16:00:47.110Z,9.90
2022-08-17T16:03:58.307Z,10.30
2022-08-17T16:06:11.136Z,11.00
2022-08-17T16:08:41.823Z,10.10
2022-08-17T16:11:11.992Z,11.20
2022-08-17T16:13:41.715Z,10.30
2022-08-17T16:16:16.233Z,10.40
2022-08-17T16:18:44.329Z,10.50
2022-08-17T16:21:27.330Z,11.20
2022-08-17T16:24:05.846Z,10.90
2022-08-17T16:26:42.045Z,10.80
2022-08-17T16:29:10.387Z,11.00
2022-08-17T16:31:39.070Z,10.30
2022-08-17T16:34:17.603Z,10.50
2022-08-17T16:36:53.674Z,9.90
2022-08-17T16:39:26.664Z,10.00
2022-08-17T16:41:56.169Z,10.30
2022-08-17T16:44:26.060Z,10.60
2022-08-17T16:46:54.230Z,10.30
2022-08-17T16:49:35.865Z,9.80
2022-08-17T16:52:10.628Z,10.20
2022-08-17T16:54:43.910Z,11.30
2022-08-17T16:57:14.316Z,10.70
2022-08-17T16:59:47.479Z,11.20
2022-08-17T17:02:25.264Z,11.00
2022-08-17T17:05:16.879Z,11.20
2022-08-17T17:07:51.172Z,11.10
2022-08-17T17:10:25.001Z,10.30
2022-08-17T17:13:02.428Z,10.90
2022-08-17T17:15:53.695Z,11.00
2022-08-17T17:18:32.264Z,11.00
2022-08-17T17:21:01.423Z,11.80
2022-08-17T17:23:52.433Z,11.00
2022-08-17T17:26:20.400Z,11.90
2022-08-17T17:29:48.205Z,11.50
2022-08-17T17:32:25.770Z,12.00
2022-08-17T17:35:01.112Z,12.00
2022-08-17T17:37:34.027Z,12.40
2022-08-17T17:40:13.673Z,12.80
2022-08-17T17:42:44.020Z,12.20
2022-08-17T17:45:26.247Z,12.50
2022-08-17T17:47:54.748Z,11.90
